sensor_id;sensor_type;location;lat;lon;timestamp;pressure;altitude;pressure_sealevel;temperature;humidity
60258;BME280;46115;44.484;11.314;2023-03-04T00:02:46;100564.13;;;7.06;86.29
60258;BME280;46115;44.484;11.314;2023-03-04T00:06:48;100568.28;;;6.85;85.73
60258;BME280;46115;44.484;11.314;2023-03-04T00:10:51;100572.75;;;6.83;85.63
60258;BME280;46115;44.484;11.314;2023-03-04T00:14:54;100578.41;;;6.71;86.74
60258;BME280;46115;44.484;11.314;2023-03-04T00:18:56;100579.34;;;6.69;86.38
60258;BME280;46115;44.484;11.314;2023-03-04T00:22:59;100577.38;;;6.75;85.77
60258;BME280;46115;44.484;11.314;2023-03-04T00:27:02;100583.84;;;6.65;86.40
60258;BME280;46115;44.484;11.314;2023-03-04T00:31:05;100572.94;;;6.49;86.46
60258;BME280;46115;44.484;11.314;2023-03-04T00:35:07;100586.28;;;6.42;86.45
60258;BME280;46115;44.484;11.314;2023-03-04T00:39:10;100588.81;;;6.45;87.41
60258;BME280;46115;44.484;11.314;2023-03-04T00:43:13;100595.47;;;6.56;86.91
60258;BME280;46115;44.484;11.314;2023-03-04T00:47:15;100592.97;;;6.52;87.14
60258;BME280;46115;44.484;11.314;2023-03-04T00:51:18;100592.31;;;6.45;87.11
60258;BME280;46115;44.484;11.314;2023-03-04T00:55:20;100589.03;;;6.39;87.84
60258;BME280;46115;44.484;11.314;2023-03-04T00:59:24;100590.31;;;6.53;87.09
60258;BME280;46115;44.484;11.314;2023-03-04T01:03:26;100580.94;;;6.45;87.58
60258;BME280;46115;44.484;11.314;2023-03-04T01:07:31;100569.00;;;6.35;87.21
60258;BME280;46115;44.484;11.314;2023-03-04T01:11:35;100584.00;;;6.31;87.38
60258;BME280;46115;44.484;11.314;2023-03-04T01:15:38;100574.41;;;6.30;88.26
60258;BME280;46115;44.484;11.314;2023-03-04T01:19:40;100573.88;;;6.47;86.91
60258;BME280;46115;44.484;11.314;2023-03-04T01:23:43;100565.75;;;6.27;87.72
60258;BME280;46115;44.484;11.314;2023-03-04T01:27:45;100575.97;;;6.36;88.11
60258;BME280;46115;44.484;11.314;2023-03-04T01:31:48;100569.44;;;6.49;87.35
60258;BME280;46115;44.484;11.314;2023-03-04T01:35:51;100567.16;;;6.38;87.74
60258;BME280;46115;44.484;11.314;2023-03-04T01:39:53;100566.44;;;6.33;87.71
60258;BME280;46115;44.484;11.314;2023-03-04T01:43:57;100564.56;;;6.37;87.11
60258;BME280;46115;44.484;11.314;2023-03-04T01:48:02;100561.53;;;6.21;87.66
60258;BME280;46115;44.484;11.314;2023-03-04T01:52:05;100564.34;;;6.15;87.59
60258;BME280;46115;44.484;11.314;2023-03-04T01:56:14;100561.53;;;6.21;88.07
60258;BME280;46115;44.484;11.314;2023-03-04T02:00:24;100559.41;;;6.04;87.33
60258;BME280;46115;44.484;11.314;2023-03-04T02:04:30;100553.63;;;5.93;87.09
60258;BME280;46115;44.484;11.314;2023-03-04T02:08:34;100540.59;;;5.90;86.72
60258;BME280;46115;44.484;11.314;2023-03-04T02:12:37;100539.97;;;5.79;88.07
60258;BME280;46115;44.484;11.314;2023-03-04T02:16:39;100537.22;;;5.83;87.70
60258;BME280;46115;44.484;11.314;2023-03-04T02:20:50;100541.44;;;5.89;87.67
60258;BME280;46115;44.484;11.314;2023-03-04T02:24:58;100531.34;;;5.75;88.70
60258;BME280;46115;44.484;11.314;2023-03-04T02:29:03;100538.69;;;5.95;88.40
60258;BME280;46115;44.484;11.314;2023-03-04T02:33:12;100527.63;;;5.82;88.06
60258;BME280;46115;44.484;11.314;2023-03-04T02:37:16;100534.09;;;5.71;88.49
60258;BME280;46115;44.484;11.314;2023-03-04T02:41:22;100533.78;;;5.81;87.98
60258;BME280;46115;44.484;11.314;2023-03-04T02:45:41;100531.06;;;5.84;88.86
60258;BME280;46115;44.484;11.314;2023-03-04T02:49:45;100526.28;;;5.69;88.35
60258;BME280;46115;44.484;11.314;2023-03-04T02:53:47;100527.84;;;5.44;87.63
60258;BME280;46115;44.484;11.314;2023-03-04T02:57:50;100521.78;;;5.42;87.60
60258;BME280;46115;44.484;11.314;2023-03-04T03:01:54;100522.97;;;5.30;87.95
60258;BME280;46115;44.484;11.314;2023-03-04T03:05:57;100528.81;;;5.40;88.32
60258;BME280;46115;44.484;11.314;2023-03-04T03:10:00;100523.59;;;5.40;89.28
60258;BME280;46115;44.484;11.314;2023-03-04T03:14:05;100525.56;;;5.31;89.22
60258;BME280;46115;44.484;11.314;2023-03-04T03:18:09;100514.09;;;5.36;90.16
60258;BME280;46115;44.484;11.314;2023-03-04T03:22:12;100517.44;;;5.41;90.65
60258;BME280;46115;44.484;11.314;2023-03-04T03:26:16;100522.94;;;5.31;90.43
60258;BME280;46115;44.484;11.314;2023-03-04T03:30:19;100518.13;;;5.47;89.86
60258;BME280;46115;44.484;11.314;2023-03-04T03:34:23;100481.13;;;5.27;90.29
60258;BME280;46115;44.484;11.314;2023-03-04T03:38:25;100510.22;;;5.49;89.95
60258;BME280;46115;44.484;11.314;2023-03-04T03:42:28;100512.75;;;5.52;91.11
60258;BME280;46115;44.484;11.314;2023-03-04T03:46:30;100509.94;;;5.59;90.51
60258;BME280;46115;44.484;11.314;2023-03-04T03:50:33;100512.59;;;5.58;90.59
60258;BME280;46115;44.484;11.314;2023-03-04T03:54:36;100415.28;;;5.07;90.38
60258;BME280;46115;44.484;11.314;2023-03-04T03:58:38;100516.91;;;5.60;89.98
60258;BME280;46115;44.484;11.314;2023-03-04T04:02:40;100508.28;;;5.57;90.33
60258;BME280;46115;44.484;11.314;2023-03-04T04:06:43;100515.31;;;5.53;90.43
60258;BME280;46115;44.484;11.314;2023-03-04T04:10:46;100500.84;;;5.40;90.51
60258;BME280;46115;44.484;11.314;2023-03-04T04:14:48;100512.59;;;5.58;90.01
60258;BME280;46115;44.484;11.314;2023-03-04T04:18:50;100511.47;;;5.36;90.21
60258;BME280;46115;44.484;11.314;2023-03-04T04:22:53;100512.88;;;5.47;90.27
60258;BME280;46115;44.484;11.314;2023-03-04T04:26:56;100491.88;;;5.16;89.97
60258;BME280;46115;44.484;11.314;2023-03-04T04:30:58;100518.63;;;5.29;90.68
60258;BME280;46115;44.484;11.314;2023-03-04T04:35:00;100516.69;;;5.36;90.28
60258;BME280;46115;44.484;11.314;2023-03-04T04:39:04;100514.59;;;5.48;90.80
60258;BME280;46115;44.484;11.314;2023-03-04T04:43:06;100514.22;;;5.31;91.16
60258;BME280;46115;44.484;11.314;2023-03-04T04:47:08;100517.91;;;5.24;91.00
60258;BME280;46115;44.484;11.314;2023-03-04T04:51:11;100518.16;;;5.13;90.29
60258;BME280;46115;44.484;11.314;2023-03-04T04:55:14;100514.56;;;5.17;91.24
60258;BME280;46115;44.484;11.314;2023-03-04T04:59:17;100512.50;;;5.30;90.84
60258;BME280;46115;44.484;11.314;2023-03-04T05:03:19;100477.53;;;4.97;91.11
60258;BME280;46115;44.484;11.314;2023-03-04T05:07:21;100519.84;;;5.16;90.58
60258;BME280;46115;44.484;11.314;2023-03-04T05:11:25;100518.19;;;5.12;91.04
60258;BME280;46115;44.484;11.314;2023-03-04T05:15:27;100511.00;;;5.20;91.21
60258;BME280;46115;44.484;11.314;2023-03-04T05:19:30;100507.69;;;5.13;90.71
60258;BME280;46115;44.484;11.314;2023-03-04T05:23:32;100509.81;;;4.99;91.91
60258;BME280;46115;44.484;11.314;2023-03-04T05:27:36;100502.31;;;4.84;90.41
60258;BME280;46115;44.484;11.314;2023-03-04T05:31:39;100515.38;;;4.85;90.37
60258;BME280;46115;44.484;11.314;2023-03-04T05:35:41;100515.63;;;4.75;90.48
60258;BME280;46115;44.484;11.314;2023-03-04T05:39:44;100506.81;;;4.79;90.59
60258;BME280;46115;44.484;11.314;2023-03-04T05:43:48;100518.16;;;4.79;91.02
60258;BME280;46115;44.484;11.314;2023-03-04T05:47:51;100506.56;;;4.89;90.39
60258;BME280;46115;44.484;11.314;2023-03-04T05:51:53;100504.84;;;4.88;91.19
60258;BME280;46115;44.484;11.314;2023-03-04T05:55:55;100518.59;;;4.96;91.10
60258;BME280;46115;44.484;11.314;2023-03-04T06:00:00;100529.25;;;4.90;90.76
60258;BME280;46115;44.484;11.314;2023-03-04T06:04:13;100529.19;;;4.92;90.84
60258;BME280;46115;44.484;11.314;2023-03-04T06:08:15;100532.03;;;4.83;91.25
60258;BME280;46115;44.484;11.314;2023-03-04T06:12:17;100528.50;;;4.84;91.16
60258;BME280;46115;44.484;11.314;2023-03-04T06:16:21;100536.19;;;4.91;90.78
60258;BME280;46115;44.484;11.314;2023-03-04T06:20:23;100530.31;;;4.82;90.88
60258;BME280;46115;44.484;11.314;2023-03-04T06:24:25;100544.13;;;4.88;90.95
60258;BME280;46115;44.484;11.314;2023-03-04T06:28:28;100538.47;;;5.05;90.76
60258;BME280;46115;44.484;11.314;2023-03-04T06:32:32;100550.50;;;5.12;90.90
60258;BME280;46115;44.484;11.314;2023-03-04T06:36:35;100546.09;;;5.14;90.10
60258;BME280;46115;44.484;11.314;2023-03-04T06:40:37;100547.53;;;5.26;88.95
60258;BME280;46115;44.484;11.314;2023-03-04T06:44:39;100555.03;;;5.72;87.35
60258;BME280;46115;44.484;11.314;2023-03-04T06:48:43;100561.09;;;6.07;84.70
60258;BME280;46115;44.484;11.314;2023-03-04T06:52:45;100550.44;;;6.11;83.94
60258;BME280;46115;44.484;11.314;2023-03-04T06:56:49;100567.13;;;6.68;83.66
60258;BME280;46115;44.484;11.314;2023-03-04T07:00:51;100566.91;;;7.02;81.66
60258;BME280;46115;44.484;11.314;2023-03-04T07:04:55;100574.53;;;7.09;81.15
60258;BME280;46115;44.484;11.314;2023-03-04T07:08:57;100581.56;;;7.09;81.74
60258;BME280;46115;44.484;11.314;2023-03-04T07:12:59;100578.94;;;7.60;79.33
60258;BME280;46115;44.484;11.314;2023-03-04T07:17:01;100538.66;;;7.58;78.37
60258;BME280;46115;44.484;11.314;2023-03-04T07:21:06;100584.19;;;8.32;76.23
60258;BME280;46115;44.484;11.314;2023-03-04T07:25:09;100593.78;;;8.36;75.79
60258;BME280;46115;44.484;11.314;2023-03-04T07:29:12;100601.69;;;8.58;74.79
60258;BME280;46115;44.484;11.314;2023-03-04T07:33:14;100594.50;;;9.06;73.38
60258;BME280;46115;44.484;11.314;2023-03-04T07:37:17;100597.19;;;10.08;69.42
60258;BME280;46115;44.484;11.314;2023-03-04T07:41:21;100595.84;;;10.93;67.17
60258;BME280;46115;44.484;11.314;2023-03-04T07:45:26;100604.94;;;12.75;62.03
60258;BME280;46115;44.484;11.314;2023-03-04T07:49:29;100605.19;;;13.48;58.53
60258;BME280;46115;44.484;11.314;2023-03-04T07:53:33;100616.81;;;13.91;56.91
60258;BME280;46115;44.484;11.314;2023-03-04T07:57:37;100626.63;;;18.36;46.54
60258;BME280;46115;44.484;11.314;2023-03-04T08:01:40;100623.50;;;18.65;43.70
60258;BME280;46115;44.484;11.314;2023-03-04T08:05:42;100608.72;;;20.10;40.74
60258;BME280;46115;44.484;11.314;2023-03-04T08:09:46;100623.09;;;19.35;40.75
60258;BME280;46115;44.484;11.314;2023-03-04T08:13:49;100630.84;;;21.24;36.94
60258;BME280;46115;44.484;11.314;2023-03-04T08:17:54;100619.16;;;21.14;37.15
60258;BME280;46115;44.484;11.314;2023-03-04T08:21:56;100623.03;;;22.92;34.29
60258;BME280;46115;44.484;11.314;2023-03-04T08:26:05;100618.47;;;22.18;35.33
60258;BME280;46115;44.484;11.314;2023-03-04T08:30:08;100618.09;;;24.72;31.31
60258;BME280;46115;44.484;11.314;2023-03-04T08:34:12;100595.13;;;22.46;34.57
60258;BME280;46115;44.484;11.314;2023-03-04T08:38:14;100603.72;;;22.59;34.28
60258;BME280;46115;44.484;11.314;2023-03-04T08:42:18;100613.91;;;23.74;33.01
60258;BME280;46115;44.484;11.314;2023-03-04T08:46:20;100607.09;;;24.65;31.63
60258;BME280;46115;44.484;11.314;2023-03-04T08:50:23;100618.81;;;25.97;29.72
60258;BME280;46115;44.484;11.314;2023-03-04T08:54:27;100609.56;;;23.81;31.96
60258;BME280;46115;44.484;11.314;2023-03-04T08:58:31;100610.19;;;26.10;29.42
60258;BME280;46115;44.484;11.314;2023-03-04T09:02:33;100608.84;;;24.91;30.21
60258;BME280;46115;44.484;11.314;2023-03-04T09:06:35;100606.13;;;25.49;29.82
60258;BME280;46115;44.484;11.314;2023-03-04T09:10:38;100609.78;;;26.29;29.14
60258;BME280;46115;44.484;11.314;2023-03-04T09:14:42;100607.81;;;25.42;29.21
60258;BME280;46115;44.484;11.314;2023-03-04T09:18:44;100609.34;;;27.35;27.01
60258;BME280;46115;44.484;11.314;2023-03-04T09:22:47;100594.75;;;28.34;25.64
60258;BME280;46115;44.484;11.314;2023-03-04T09:26:49;100596.75;;;27.88;26.19
60258;BME280;46115;44.484;11.314;2023-03-04T09:30:53;100597.00;;;27.32;27.27
60258;BME280;46115;44.484;11.314;2023-03-04T09:34:55;100593.34;;;26.47;28.02
60258;BME280;46115;44.484;11.314;2023-03-04T09:38:58;100589.22;;;25.96;28.49
60258;BME280;46115;44.484;11.314;2023-03-04T09:43:04;100583.59;;;27.31;27.10
60258;BME280;46115;44.484;11.314;2023-03-04T09:47:11;100574.50;;;27.47;27.29
60258;BME280;46115;44.484;11.314;2023-03-04T09:51:19;100572.66;;;27.85;27.38
60258;BME280;46115;44.484;11.314;2023-03-04T09:55:23;100565.09;;;26.25;29.45
60258;BME280;46115;44.484;11.314;2023-03-04T09:59:32;100531.13;;;23.82;32.41
60258;BME280;46115;44.484;11.314;2023-03-04T10:03:42;100551.22;;;21.79;36.08
60258;BME280;46115;44.484;11.314;2023-03-04T10:07:55;100536.47;;;20.58;38.16
60258;BME280;46115;44.484;11.314;2023-03-04T10:12:01;100537.00;;;19.81;40.57
60258;BME280;46115;44.484;11.314;2023-03-04T10:16:08;100538.56;;;18.45;43.16
60258;BME280;46115;44.484;11.314;2023-03-04T10:20:18;100526.94;;;17.55;45.14
60258;BME280;46115;44.484;11.314;2023-03-04T10:24:27;100530.84;;;17.27;45.90
60258;BME280;46115;44.484;11.314;2023-03-04T10:28:31;100516.34;;;16.83;46.45
60258;BME280;46115;44.484;11.314;2023-03-04T10:32:35;100517.94;;;16.49;47.95
60258;BME280;46115;44.484;11.314;2023-03-04T10:36:46;100514.00;;;16.05;48.10
60258;BME280;46115;44.484;11.314;2023-03-04T10:40:51;100504.06;;;15.95;48.48
60258;BME280;46115;44.484;11.314;2023-03-04T10:44:55;100503.75;;;16.12;47.79
60258;BME280;46115;44.484;11.314;2023-03-04T10:48:58;100499.38;;;16.11;45.99
60258;BME280;46115;44.484;11.314;2023-03-04T10:53:02;100496.31;;;15.79;47.43
60258;BME280;46115;44.484;11.314;2023-03-04T10:57:10;100489.03;;;15.43;50.06
60258;BME280;46115;44.484;11.314;2023-03-04T11:01:15;100453.44;;;15.31;49.72
60258;BME280;46115;44.484;11.314;2023-03-04T11:05:19;100476.38;;;15.59;50.80
60258;BME280;46115;44.484;11.314;2023-03-04T11:09:25;100468.09;;;15.64;51.19
60258;BME280;46115;44.484;11.314;2023-03-04T11:13:30;100464.72;;;15.47;51.63
60258;BME280;46115;44.484;11.314;2023-03-04T11:17:41;100454.75;;;15.64;51.05
60258;BME280;46115;44.484;11.314;2023-03-04T11:21:45;100458.53;;;15.47;51.61
60258;BME280;46115;44.484;11.314;2023-03-04T11:25:54;100440.53;;;15.12;48.92
60258;BME280;46115;44.484;11.314;2023-03-04T11:30:04;100438.50;;;15.16;49.61
60258;BME280;46115;44.484;11.314;2023-03-04T11:34:14;100439.97;;;15.07;48.84
60258;BME280;46115;44.484;11.314;2023-03-04T11:38:21;100431.06;;;15.59;47.53
60258;BME280;46115;44.484;11.314;2023-03-04T11:42:34;100436.16;;;14.98;48.65
60258;BME280;46115;44.484;11.314;2023-03-04T11:46:54;100417.34;;;15.27;47.58
60258;BME280;46115;44.484;11.314;2023-03-04T11:51:02;100417.50;;;14.98;48.71
60258;BME280;46115;44.484;11.314;2023-03-04T11:55:24;100418.78;;;15.06;47.32
60258;BME280;46115;44.484;11.314;2023-03-04T12:00:05;100412.63;;;15.05;47.64
60258;BME280;46115;44.484;11.314;2023-03-04T12:04:24;100410.91;;;15.17;48.48
60258;BME280;46115;44.484;11.314;2023-03-04T12:08:49;100398.16;;;15.35;47.92
60258;BME280;46115;44.484;11.314;2023-03-04T12:13:24;100394.50;;;15.10;47.93
60258;BME280;46115;44.484;11.314;2023-03-04T12:17:45;100378.97;;;15.04;49.10
60258;BME280;46115;44.484;11.314;2023-03-04T12:26:32;100371.72;;;14.93;47.74
60258;BME280;46115;44.484;11.314;2023-03-04T12:30:46;100357.78;;;14.50;45.54
60258;BME280;46115;44.484;11.314;2023-03-04T12:35:08;100354.22;;;14.37;47.45
60258;BME280;46115;44.484;11.314;2023-03-04T12:39:24;100344.38;;;14.52;47.53
60258;BME280;46115;44.484;11.314;2023-03-04T12:43:37;100329.00;;;14.30;47.89
60258;BME280;46115;44.484;11.314;2023-03-04T12:47:51;100326.78;;;14.76;45.95
60258;BME280;46115;44.484;11.314;2023-03-04T12:52:04;100325.56;;;14.55;45.92
60258;BME280;46115;44.484;11.314;2023-03-04T12:56:21;100313.47;;;14.89;44.66
60258;BME280;46115;44.484;11.314;2023-03-04T13:00:34;100318.00;;;14.49;44.33
60258;BME280;46115;44.484;11.314;2023-03-04T13:04:50;100312.50;;;14.77;44.05
60258;BME280;46115;44.484;11.314;2023-03-04T13:09:03;100303.53;;;14.53;44.82
60258;BME280;46115;44.484;11.314;2023-03-04T13:13:33;100304.59;;;14.50;45.54
60258;BME280;46115;44.484;11.314;2023-03-04T13:17:38;100303.38;;;14.94;44.70
60258;BME280;46115;44.484;11.314;2023-03-04T13:21:45;100274.19;;;15.05;44.53
60258;BME280;46115;44.484;11.314;2023-03-04T13:26:13;100283.88;;;15.06;45.82
60258;BME280;46115;44.484;11.314;2023-03-04T13:30:41;100288.66;;;15.14;45.80
60258;BME280;46115;44.484;11.314;2023-03-04T13:34:48;100282.81;;;14.96;45.51
60258;BME280;46115;44.484;11.314;2023-03-04T13:38:57;100283.56;;;15.11;45.69
60258;BME280;46115;44.484;11.314;2023-03-04T13:43:27;100276.63;;;15.08;44.11
60258;BME280;46115;44.484;11.314;2023-03-04T13:47:43;100266.22;;;14.92;42.88
60258;BME280;46115;44.484;11.314;2023-03-04T13:51:46;100256.47;;;14.28;41.23
60258;BME280;46115;44.484;11.314;2023-03-04T13:56:28;100260.56;;;14.46;40.48
60258;BME280;46115;44.484;11.314;2023-03-04T14:00:32;100260.38;;;14.62;42.25
60258;BME280;46115;44.484;11.314;2023-03-04T14:04:38;100255.97;;;13.96;43.89
60258;BME280;46115;44.484;11.314;2023-03-04T14:08:40;100241.63;;;14.51;43.94
60258;BME280;46115;44.484;11.314;2023-03-04T14:12:43;100246.44;;;14.58;44.26
60258;BME280;46115;44.484;11.314;2023-03-04T14:16:49;100241.81;;;15.11;43.93
60258;BME280;46115;44.484;11.314;2023-03-04T14:20:59;100237.31;;;15.12;42.85
60258;BME280;46115;44.484;11.314;2023-03-04T14:25:04;100227.13;;;15.06;44.14
60258;BME280;46115;44.484;11.314;2023-03-04T14:29:19;100214.16;;;14.50;44.62
60258;BME280;46115;44.484;11.314;2023-03-04T14:33:25;100221.84;;;14.93;44.51
60258;BME280;46115;44.484;11.314;2023-03-04T14:37:34;100215.75;;;14.91;43.60
60258;BME280;46115;44.484;11.314;2023-03-04T14:41:40;100206.38;;;14.98;44.84
60258;BME280;46115;44.484;11.314;2023-03-04T14:45:44;100198.41;;;14.85;43.61
60258;BME280;46115;44.484;11.314;2023-03-04T14:49:51;100202.13;;;14.83;44.43
60258;BME280;46115;44.484;11.314;2023-03-04T14:53:54;100198.31;;;14.49;44.61
60258;BME280;46115;44.484;11.314;2023-03-04T14:58:06;100192.28;;;14.59;46.14
60258;BME280;46115;44.484;11.314;2023-03-04T15:02:23;100191.69;;;14.42;46.40
60258;BME280;46115;44.484;11.314;2023-03-04T15:06:33;100185.34;;;14.70;44.85
60258;BME280;46115;44.484;11.314;2023-03-04T15:10:37;100187.53;;;14.88;43.98
60258;BME280;46115;44.484;11.314;2023-03-04T15:14:43;100174.69;;;14.57;45.71
60258;BME280;46115;44.484;11.314;2023-03-04T15:18:57;100172.91;;;14.57;45.44
60258;BME280;46115;44.484;11.314;2023-03-04T15:23:03;100168.84;;;14.64;44.86
60258;BME280;46115;44.484;11.314;2023-03-04T15:27:09;100161.72;;;14.52;42.89
60258;BME280;46115;44.484;11.314;2023-03-04T15:31:15;100136.28;;;14.35;44.48
60258;BME280;46115;44.484;11.314;2023-03-04T15:35:18;100159.50;;;14.59;45.01
60258;BME280;46115;44.484;11.314;2023-03-04T15:39:22;100147.34;;;14.29;47.21
60258;BME280;46115;44.484;11.314;2023-03-04T15:43:25;100145.75;;;14.52;45.64
60258;BME280;46115;44.484;11.314;2023-03-04T15:47:27;100136.91;;;14.39;44.12
60258;BME280;46115;44.484;11.314;2023-03-04T15:51:30;100145.84;;;14.38;44.68
60258;BME280;46115;44.484;11.314;2023-03-04T15:55:33;100135.88;;;14.29;45.29
60258;BME280;46115;44.484;11.314;2023-03-04T15:59:36;100140.34;;;14.28;46.87
60258;BME280;46115;44.484;11.314;2023-03-04T16:03:38;100129.16;;;14.23;47.19
60258;BME280;46115;44.484;11.314;2023-03-04T16:07:43;100130.13;;;14.35;45.39
60258;BME280;46115;44.484;11.314;2023-03-04T16:11:47;100132.22;;;14.17;45.47
60258;BME280;46115;44.484;11.314;2023-03-04T16:15:49;100125.00;;;14.07;45.63
60258;BME280;46115;44.484;11.314;2023-03-04T16:19:52;100121.19;;;13.98;47.33
60258;BME280;46115;44.484;11.314;2023-03-04T16:23:54;100125.97;;;14.05;47.27
60258;BME280;46115;44.484;11.314;2023-03-04T16:27:58;100129.16;;;13.98;47.33
60258;BME280;46115;44.484;11.314;2023-03-04T16:32:02;100115.50;;;13.64;46.67
60258;BME280;46115;44.484;11.314;2023-03-04T16:36:11;100130.25;;;13.68;46.42
60258;BME280;46115;44.484;11.314;2023-03-04T16:40:17;100115.75;;;13.47;47.54
60258;BME280;46115;44.484;11.314;2023-03-04T16:44:21;100124.34;;;13.38;48.45
60258;BME280;46115;44.484;11.314;2023-03-04T16:48:24;100123.28;;;13.40;49.83
60258;BME280;46115;44.484;11.314;2023-03-04T16:52:30;100120.38;;;13.31;50.21
60258;BME280;46115;44.484;11.314;2023-03-04T16:56:33;100119.19;;;13.22;50.31
60258;BME280;46115;44.484;11.314;2023-03-04T17:00:36;100121.69;;;12.97;51.61
60258;BME280;46115;44.484;11.314;2023-03-04T17:04:38;100121.69;;;12.82;52.93
60258;BME280;46115;44.484;11.314;2023-03-04T17:08:40;100125.03;;;12.72;52.46
60258;BME280;46115;44.484;11.314;2023-03-04T17:12:43;100128.84;;;12.68;52.30
60258;BME280;46115;44.484;11.314;2023-03-04T17:16:46;100123.47;;;12.55;52.01
60258;BME280;46115;44.484;11.314;2023-03-04T17:20:49;100130.47;;;12.28;52.66
60258;BME280;46115;44.484;11.314;2023-03-04T17:24:51;100139.47;;;12.39;53.46
60258;BME280;46115;44.484;11.314;2023-03-04T17:28:53;100130.44;;;12.13;54.27
60258;BME280;46115;44.484;11.314;2023-03-04T17:32:56;100125.59;;;11.92;54.52
60258;BME280;46115;44.484;11.314;2023-03-04T17:36:59;100129.94;;;11.63;55.89
60258;BME280;46115;44.484;11.314;2023-03-04T23:06:13;100152.75;;;5.76;71.34
60258;BME280;46115;44.484;11.314;2023-03-04T23:10:18;100150.97;;;5.77;71.74
60258;BME280;46115;44.484;11.314;2023-03-04T23:14:21;100151.03;;;6.02;71.06
60258;BME280;46115;44.484;11.314;2023-03-04T23:18:23;100150.06;;;5.78;70.66
60258;BME280;46115;44.484;11.314;2023-03-04T23:22:27;100152.34;;;5.87;70.71
60258;BME280;46115;44.484;11.314;2023-03-04T23:26:31;100137.69;;;5.56;71.30
60258;BME280;46115;44.484;11.314;2023-03-04T23:30:33;100141.19;;;5.57;71.42
60258;BME280;46115;44.484;11.314;2023-03-04T23:34:36;100150.53;;;5.38;72.93
60258;BME280;46115;44.484;11.314;2023-03-04T23:38:40;100138.13;;;5.16;73.25
60258;BME280;46115;44.484;11.314;2023-03-04T23:42:43;100146.66;;;5.23;73.63
60258;BME280;46115;44.484;11.314;2023-03-04T23:46:45;100155.94;;;5.33;72.82
60258;BME280;46115;44.484;11.314;2023-03-04T23:50:49;100154.81;;;5.40;72.68
60258;BME280;46115;44.484;11.314;2023-03-04T23:54:54;100149.84;;;5.32;72.64
60258;BME280;46115;44.484;11.314;2023-03-04T23:58:57;100134.69;;;5.14;73.60
